Hauptseite
METAR-TAF:

METAR-TAF

Flughäfen :

Flughafen Weeze

Weeze, Deutschland

Breite: 51-36-09N, Länge: 006-08-32E, Höhe: 32 m

Beobachtung

Neuester Wetterbericht von vor 25 Minuten, um 14:20 UTC
Wind 6 kt aus Süd
Temperatur 8°C
Luftfeuchtigkeit 81%
Luftdruck 1021 hPa
Sichtweite 10 km oder mehr
Geschlossene Wolkendecke in der Höhe von 1900 ft

METAR: EDLV 281420Z 17006KT 9999 OVC019 08/05 Q1021

Zeit: 15:45 (14:45 UTC)

Prognose

Neuester Wetterbericht von vor 2 Stunden und 44 Minuten, um 12:01 UTC
Gültige Prognose vom 28 um 12 UTC bis 29 um 12 UTC
Wind 7 kt aus Süd
Sichtweite 10 km oder mehr
Durchbrochene Bewölkung in der Höhe von 800 ft
Übergehend zu
vom 28 um 12 UTC bis 28 um 15 UTC
Durchbrochene Bewölkung in der Höhe von 1500 ft

TAF: EDLV 281201Z 2812/2912 18007KT 9999 BKN008 BECMG 2812/2815 BKN015

Wetterbeobachtungen und Prognosen von mehr als 4000 Flughäfen (METAR und TAF Bericht).

Die verfügbaren Stationen werden durch gelbe und rote Markierungen auf der Karte dargestellt.

Führen Sie die Maus auf sie, um den Namen der Station zu sehen.

Darauf klicken, um die Beobachtung von Wetterbeobachtungen und Prognosen zu sehen.

Um die Karte zu ändern : klicken Sie auf den grünen Tasten mit einem schwarzen Kreuz Zum Vergrößern, auf den grünen Button mit einem Gedankenstrich zu verkleinern, oder auf die grünen Pfeile für benachbarte Karten.


METAR-TAF: